Latest Weather Observations for Horsley Park

IDN60901

Issued at 10:31 pm EDT Thursday 23 February 2017 (issued every 10 minutes, with the page automatically refreshed every 10 minutes)

About weather observations | Map of Sydney area stations | Latest observations for Sydney area | Other Formats
Station Details ID: 067119 Name: HORSLEY PARK EQUESTRIAN CENTRE AWS Lat: -33.85 Lon: 150.86 Height: 100.0 m
Data from the previous 72 hours. | See also: Recent months at Horsley Park
Date/Time
EDT
Temp
°C
App
Temp
°C
Dew
Point
°C
Rel
Hum
%
Delta-T
°C
Wind Press
QNH
hPa
Press
MSL
hPa
Rain since
9am
mm
Dir  Spd
km/h
Gust
km/h
Spd
kts
Gust
kts
23/10:00pm 22.1 23.4 15.2 65 4.1 E 2 9 1 5 - - 0.0
23/09:30pm 23.1 24.2 15.7 63 4.5 E 4 7 2 4 - - 0.0
23/09:00pm 24.0 25.8 15.5 59 5.1 CALM 0 0 0 0 - - 0.0
23/08:30pm 24.6 25.7 15.5 57 5.5 ENE 4 6 2 3 - - 0.0
23/08:00pm 25.7 26.4 16.0 55 6.0 ENE 7 11 4 6 - - 0.0
23/07:30pm 26.3 26.3 16.3 54 6.2 ESE 11 17 6 9 - - 0.0
23/07:00pm 27.5 28.0 16.5 51 6.8 ESE 9 15 5 8 - - 0.0
23/06:30pm 28.4 28.0 16.3 47 7.5 E 13 19 7 10 - - 0.0
23/06:00pm 30.1 28.8 15.8 42 8.9 E 17 22 9 12 - - 0.0
23/05:30pm 31.5 30.9 16.6 40 9.4 E 15 20 8 11 - - 0.0
23/05:00pm 32.3 30.9 16.6 39 9.9 ESE 19 26 10 14 - - 0.0
23/04:30pm 32.6 31.8 17.2 39 9.9 E 17 24 9 13 - - 0.0
23/04:00pm 32.8 33.2 18.2 42 9.5 ESE 13 20 7 11 - - 0.0
23/03:30pm 33.1 32.8 17.3 39 10.1 ESE 15 22 8 12 - - 0.0
23/03:00pm 33.0 33.0 17.2 39 10.1 ESE 13 19 7 10 - - 0.0
23/02:30pm 33.3 33.1 15.8 35 11.0 E 11 19 6 10 - - 0.0
23/02:00pm 33.3 34.1 15.8 35 11.0 E 6 13 3 7 - - 0.0
23/01:30pm 31.9 32.2 15.0 36 10.4 NE 7 17 4 9 - - 0.0
23/01:00pm 30.5 31.2 14.6 38 9.7 NNE 4 13 2 7 - - 0.0
23/12:30pm 30.0 31.4 15.3 41 9.1 NNE 2 6 1 3 - - 0.0
23/12:00pm 28.5 29.5 15.4 45 8.0 N 4 7 2 4 - - 0.0
23/11:30am 27.6 29.2 16.9 52 6.7 NE 4 15 2 8 - - 0.0
23/11:00am 25.8 27.5 16.1 55 6.0 NW 2 7 1 4 - - 0.0
23/10:30am 25.5 26.6 16.6 58 5.5 ENE 6 9 3 5 - - 0.0
23/10:00am 24.2 25.5 17.0 64 4.5 N 6 9 3 5 - - 0.0
23/09:30am 23.4 24.2 16.4 64 4.3 NE 7 11 4 6 - - 0.0
23/09:00am 21.9 22.6 16.0 69 3.6 N 7 9 4 5 - - 0.0
23/08:30am 21.0 22.2 15.8 72 3.1 NNE 4 9 2 5 - - 0.0
23/08:00am 20.1 21.8 16.3 79 2.3 NNE 2 6 1 3 - - 0.0
23/07:30am 18.9 21.4 17.2 90 1.0 CALM 0 0 0 0 - - 0.0
23/07:00am 17.0 18.8 15.5 91 0.9 CALM 0 0 0 0 - - 0.0
23/06:30am 16.9 18.7 15.4 91 0.9 CALM 0 2 0 1 - - 0.0
23/06:00am 16.9 18.7 15.4 91 0.9 CALM 0 0 0 0 - - 0.0
23/05:30am 17.5 19.4 15.7 89 1.1 CALM 0 0 0 0 - - 0.0
23/05:00am 17.3 19.1 15.5 89 1.1 CALM 0 0 0 0 - - 0.0
23/04:30am 17.5 19.4 15.8 90 1.0 CALM 0 0 0 0 - - 0.0
23/04:00am 17.8 19.6 15.6 87 1.3 CALM 0 0 0 0 - - 0.0
23/03:30am 18.0 19.8 15.6 86 1.4 CALM 0 0 0 0 - - 0.0
23/03:00am 18.4 20.2 15.6 84 1.7 CALM 0 0 0 0 - - 0.0
23/02:30am 18.7 19.9 15.8 83 1.7 E 4 6 2 3 - - 0.0
23/02:00am 19.2 21.2 15.9 81 2.0 CALM 0 0 0 0 - - 0.0
23/01:30am 19.1 20.3 16.0 82 1.9 E 4 6 2 3 - - 0.0
23/01:00am 19.0 20.1 15.7 81 2.0 ESE 4 4 2 2 - - 0.0
23/12:30am 19.5 20.6 15.6 78 2.3 E 4 6 2 3 - - 0.0
23/12:00am 20.3 22.2 15.7 75 2.7 CALM 0 2 0 1 - - 0.0
 
Date/Time
EDT
Temp
°C
App
Temp
°C
Dew
Point
°C
Rel
Hum
%
Delta-T
°C
Wind Press
QNH
hPa
Press
MSL
hPa
Rain since
9am
mm
Dir  Spd
km/h
Gust
km/h
Spd
kts
Gust
kts
22/11:30pm 21.2 22.3 15.7 71 3.3 NE 4 6 2 3 - - 0.0
22/11:00pm 20.9 21.9 15.4 71 3.3 ENE 4 6 2 3 - - 0.0
22/10:30pm 21.5 22.2 15.6 69 3.5 ENE 6 7 3 4 - - 0.0
22/10:00pm 22.1 22.8 15.5 66 4.0 NE 6 7 3 4 - - 0.0
22/09:30pm 22.7 22.4 15.5 64 4.3 NE 11 19 6 10 - - 0.0
22/09:00pm 23.0 23.1 15.6 63 4.5 NE 9 17 5 9 - - 0.0
22/08:30pm 23.2 22.9 15.5 62 4.6 NE 11 17 6 9 - - 0.0
22/08:00pm 23.6 22.8 15.1 59 5.1 ENE 13 19 7 10 - - 0.0
22/07:30pm 24.3 23.1 15.0 56 5.6 NE 15 22 8 12 - - 0.0
22/07:00pm 25.1 23.8 14.9 53 6.1 ENE 15 22 8 12 - - 0.0
22/06:30pm 26.0 24.7 14.8 50 6.7 ENE 15 22 8 12 - - 0.0
22/06:00pm 26.6 24.3 14.7 48 7.2 ENE 20 28 11 15 - - 0.0
22/05:30pm 27.2 25.3 14.2 44 7.8 E 17 28 9 15 - - 0.0
22/05:00pm 28.5 27.0 15.4 45 8.0 ENE 17 28 9 15 - - 0.0
22/04:30pm 28.3 26.2 15.2 44 8.0 ENE 20 35 11 19 - - 0.0
22/04:00pm 28.6 26.3 15.8 45 7.9 ENE 22 35 12 19 - - 0.0
22/03:30pm 29.1 27.0 16.3 46 8.0 E 22 35 12 19 - - 0.0
22/03:00pm 29.3 27.6 15.8 44 8.4 ENE 19 32 10 17 - - 0.0
22/02:30pm 29.4 27.6 15.9 44 8.4 E 20 28 11 15 - - 0.0
22/02:00pm 29.6 29.5 15.0 41 8.9 ENE 9 19 5 10 - - 0.0
22/01:30pm 29.7 29.4 15.4 42 8.8 NE 11 20 6 11 - - 0.0
22/01:00pm 28.8 28.4 15.3 43 8.3 NNE 11 20 6 11 - - 0.0
22/12:30pm 27.8 26.4 14.4 43 8.1 NE 15 24 8 13 - - 0.0
22/12:00pm 27.7 27.5 15.7 48 7.4 NNE 11 20 6 11 - - 0.0
22/11:30am 26.5 26.2 15.5 50 6.7 NE 11 20 6 11 - - 0.0
22/11:00am 26.1 26.0 16.1 54 6.2 NNE 11 17 6 9 - - 0.0
22/10:30am 25.1 23.8 15.7 56 5.7 NNE 17 26 9 14 - - 0.0
22/10:00am 24.4 23.7 15.3 57 5.5 NNE 13 22 7 12 - - 0.0
22/09:30am 23.5 23.9 15.3 60 4.9 NNE 7 17 4 9 - - 0.0
22/09:00am 22.5 23.5 15.4 64 4.3 N 4 7 2 4 - - 0.0
22/08:30am 21.4 23.1 15.3 68 3.6 CALM 0 0 0 0 - - 0.0
22/08:00am 21.8 23.8 16.1 70 3.4 CALM 0 0 0 0 - - 0.0
22/07:30am 18.6 20.5 15.8 84 1.7 CALM 0 0 0 0 - - 0.0
22/07:00am 16.9 18.5 14.9 88 1.2 CALM 0 0 0 0 - - 0.0
22/06:30am 16.8 18.4 14.8 88 1.2 CALM 0 0 0 0 - - 0.0
22/06:00am 16.8 18.2 14.4 86 1.4 CALM 0 0 0 0 - - 0.0
22/05:30am 16.6 18.0 14.4 87 1.3 CALM 0 0 0 0 - - 0.0
22/05:00am 17.1 18.4 14.0 82 1.8 CALM 0 0 0 0 - - 0.0
22/04:30am 17.1 18.4 14.2 83 1.7 CALM 0 0 0 0 - - 0.0
22/04:00am 16.9 18.1 13.8 82 1.8 CALM 0 6 0 3 - - 0.0
22/03:30am 17.9 19.2 14.2 79 2.1 CALM 0 0 0 0 - - 0.0
22/03:00am 17.9 19.2 14.2 79 2.1 CALM 0 0 0 0 - - 0.0
22/02:30am 17.8 19.1 14.1 79 2.1 CALM 0 2 0 1 - - 0.0
22/02:00am 17.7 19.1 14.4 81 1.9 CALM 0 0 0 0 - - 0.0
22/01:30am 18.2 19.4 13.9 76 2.5 CALM 0 0 0 0 - - 0.0
22/01:00am 18.0 19.2 13.9 77 2.3 CALM 0 0 0 0 - - 0.0
22/12:30am 18.8 20.0 13.9 73 2.8 CALM 0 0 0 0 - - 0.0
22/12:00am 20.1 20.4 13.3 65 3.9 NE 4 6 2 3 - - 0.0
 
Date/Time
EDT
Temp
°C
App
Temp
°C
Dew
Point
°C
Rel
Hum
%
Delta-T
°C
Wind Press
QNH
hPa
Press
MSL
hPa
Rain since
9am
mm
Dir  Spd
km/h
Gust
km/h
Spd
kts
Gust
kts
21/11:30pm 20.9 21.3 13.6 63 4.2 NE 4 7 2 4 - - 0.0
21/11:00pm 21.0 20.9 13.4 62 4.4 NE 6 9 3 5 - - 0.0
21/10:30pm 21.7 21.6 13.9 61 4.5 NE 7 15 4 8 - - 0.0
21/10:00pm 22.1 21.7 14.2 61 4.6 NNE 9 20 5 11 - - 0.0
21/09:30pm 22.2 21.9 14.3 61 4.6 NE 9 13 5 7 - - 0.0
21/09:00pm 22.7 22.6 14.0 58 5.1 NE 7 13 4 7 - - 0.0
21/08:30pm 23.0 22.1 13.8 56 5.4 ENE 11 19 6 10 - - 0.0
21/08:00pm 23.0 21.7 13.8 56 5.4 NE 13 20 7 11 - - 0.0
21/07:30pm 23.6 22.0 12.9 51 6.2 ENE 13 20 7 11 - - 0.0
21/07:00pm 24.1 22.6 13.0 50 6.4 ENE 13 19 7 10 - - 0.0
21/06:30pm 24.3 22.5 13.2 50 6.5 E 15 24 8 13 - - 0.0
21/06:00pm 24.9 21.9 12.5 46 7.2 E 20 28 11 15 - - 0.0
21/05:30pm 25.5 22.6 12.4 44 7.6 E 19 26 10 14 - - 0.0
21/05:00pm 26.2 24.1 12.3 42 8.0 E 15 22 8 12 - - 0.0
21/04:30pm 26.3 24.5 13.4 45 7.6 E 15 22 8 12 - - 0.0
21/04:00pm 25.3 22.8 12.2 44 7.5 ESE 17 24 9 13 - - 0.0
21/03:30pm 26.5 24.6 12.9 43 8.0 ESE 15 24 8 13 - - 0.0
21/03:00pm 26.7 24.5 13.4 43 7.9 E 17 26 9 14 - - 0.0
21/02:30pm 25.1 22.4 11.6 42 7.7 ESE 17 26 9 14 - - 0.0
21/02:00pm 27.2 25.5 12.4 40 8.6 ESE 13 19 7 10 - - 0.0
21/01:30pm 26.9 25.4 11.8 39 8.7 ESE 11 20 6 11 - - 0.0
21/01:00pm 26.0 24.1 10.6 38 8.7 NE 11 20 6 11 - - 0.0
21/12:30pm 26.1 24.0 11.1 39 8.5 NE 13 22 7 12 - - 0.0
21/12:00pm 24.8 23.4 9.5 38 8.4 NNE 7 15 4 8 - - 0.0
21/11:30am 24.7 23.9 9.8 39 8.2 SE 4 13 2 7 - - 0.0
21/11:00am 23.8 22.0 7.0 34 8.8 SE 6 11 3 6 - - 0.0
21/10:30am 23.6 22.8 8.1 37 8.2 WNW 2 13 1 7 - - 0.0
21/10:00am 21.4 20.4 7.3 40 7.3 W 2 6 1 3 - - 0.0
21/09:30am 20.1 18.1 7.1 43 6.6 W 7 9 4 5 - - 0.0
21/09:00am 18.6 16.5 5.8 43 6.3 SW 6 13 3 7 - - 0.0
21/08:30am 17.3 13.8 5.3 45 5.8 WSW 13 19 7 10 - - 0.0
21/08:00am 16.7 13.4 4.7 45 5.7 SW 11 15 6 8 - - 0.0
21/07:30am 16.0 13.7 5.0 48 5.2 SW 6 13 3 7 - - 0.0
21/07:00am 15.9 12.2 4.3 46 5.4 SW 13 17 7 9 - - 0.0
21/06:30am 15.8 12.0 3.9 45 5.5 SW 13 17 7 9 - - 0.0
21/06:00am 16.0 12.2 3.8 44 5.7 SW 13 17 7 9 - - 0.0
21/05:30am 16.1 12.3 3.9 44 5.7 SW 13 17 7 9 - - 0.0
21/05:00am 16.2 12.7 3.6 43 5.8 SW 11 15 6 8 - - 0.0
21/04:30am 16.5 12.6 3.6 42 6.0 SW 13 17 7 9 - - 0.0
21/04:00am 17.0 13.1 3.3 40 6.3 SW 13 15 7 8 - - 0.0
21/03:30am 16.9 13.7 3.2 40 6.3 SW 9 15 5 8 - - 0.0
21/03:00am 17.4 13.7 2.6 37 6.8 SW 11 13 6 7 - - 0.0
21/02:30am 17.4 14.2 3.3 39 6.5 SSW 9 15 5 8 - - 0.0
21/02:00am 17.6 14.9 2.4 36 6.9 SSW 6 7 3 4 - - 0.0
21/01:30am 18.1 15.1 3.9 39 6.7 SSW 9 13 5 7 - - 0.0
21/01:00am 17.2 15.6 8.6 57 4.4 SSW 7 9 4 5 - - 0.0
21/12:30am 16.5 16.0 8.0 57 4.3 CALM 0 0 0 0 - - 0.0
21/12:00am 16.8 16.2 7.4 54 4.7 CALM 0 0 0 0 - - 0.0
 
Date/Time
EDT
Temp
°C
App
Temp
°C
Dew
Point
°C
Rel
Hum
%
Delta-T
°C
Wind Press
QNH
hPa
Press
MSL
hPa
Rain since
9am
mm
Dir  Spd
km/h
Gust
km/h
Spd
kts
Gust
kts
20/11:30pm 16.4 15.8 9.1 62 3.8 SW 2 6 1 3 - - 0.0
20/11:00pm 16.6 16.1 7.8 56 4.5 CALM 0 0 0 0 - - 0.0

Latest Capital City Observations: Canberra | Sydney | Melbourne | Brisbane | Adelaide | Perth | Hobart | Darwin

Other Formats:

Comma delimited format used in spreadsheet applications
http://www.bom.gov.au/fwo/IDN60901/IDN60901.94760.axf

JavaScript Object Notation format (JSON) in row-major order
http://www.bom.gov.au/fwo/IDN60901/IDN60901.94760.json